San Clemente, CA (92672)

2:35 PM PST on February 19, 2017 (GMT -0800)
| | Change Station
Active Advisory: High Surf Advisory Active Notice: High Surf Advisory

Elev -9999 ft 0.00 °N, 0.00 °E | Updated 2 minutes ago

Overcast
Overcast
°F
Feels Like °F
N
Wind Variable Wind from North
Gusts mph

Today
High -- | Low -- °F
--% Chance of Precip.
Yesterday
High -- | Low -- °F
Precip. -- in
Pressure 30.01 in
Visibility 7.0 miles
Clouds Few 2900 ft
Overcast 4000 ft
Dew Point Not available.
Humidity Not available.
Rainfall --
Snow Depth Not available.
6:29 AM 5:39 PM
Last Quarter, 40% visible
METAR KNFG 192156Z AUTO 24008KT 7SM FEW029 OVC040 14/09 A3001 RMK AO2 SLP160 T01440089 $
Pressure 30.01 in
Visibility 7.0 miles
Clouds Few 2900 ft
Overcast 4000 ft
Dew Point Not available.
Humidity Not available.
Rainfall --
Snow Depth Not available.
6:29 AM 5:39 PM
Last Quarter, 40% visible
METAR KNFG 192156Z AUTO 24008KT 7SM FEW029 OVC040 14/09 A3001 RMK AO2 SLP160 T01440089 $

Get Your Daily Forecast Email!

Thanks for signing up!

Be on the lookout for a verification email in your inbox.

You'll start receiving the daily forecast at 8 AM.

×

10-Day Weather Forecast

Almanac

Astronomy

Feb. 19, 2017 Rise Set
Actual Time
Civil Twilight
Nautical Twilight
Astronomical Twilight
Moon
Length of Visible Light
Length of Day
Tomorrow will be .
, % of the Moon is Illuminated

Today's Extremes

State Highs State Lows

Community

WunderPhotos

Upload Photos

1,962,540 photos uploaded!

WunderBlog® & News

Nearby

Air Quality

  Air Quality AQ Index Pollutant
Not available.

Snow Depth

Station Depth Elevation

Earthquake Activity

City Distance Mag. Time & Date
Minimum magnitude displayed is 2.5.

Coastal Water Temperatures

Place Temperature

Stations

Nearby Weather Stations

Station Location Temp. Windchill Dew Point Humidity Wind Precip. Elev Updated Type
                   

Watches & Warnings

High Surf Advisory
Issued: 10:06 AM PST Feb. 19, 2017 – National Weather Service

... High surf advisory in effect until 10 PM PST this evening...
... High surf warning is cancelled...

The National Weather Service in San Diego has issued a high surf
advisory... which is in effect until 10 PM PST this evening. The
high surf warning has been cancelled.

* Surf... 6 to 10 feet this morning... with surf falling to 5 to 8
feet by this afternoon.

* High tides... 2.7 feet at 614 PM this evening.

* Impacts... strong rip currents and dangerous swimming conditions.
Large waves over-topping jetties and rock formations can sweep
people out to sea.

Precautionary/preparedness actions...

A high surf advisory means that high surf will affect beaches in
the advisory area... producing localized beach erosion and
dangerous swimming conditions.